Time;durP1;ratioP1;P1;durP2;ratioP2;P2;SDS_P1;SDS_P2;PMS_P1;PMS_P2;Temp;Humidity;BMP_temperature;BMP_pressure;BME280_temperature;BME280_humidity;BME280_pressure;Samples;Min_cycle;Max_cycle;Signal;HPM_P1;HPM_P2
2021/03/18 00:01:30;;;;;;;11.67;2.33;;;6.00;99.90;;;;;;5052339;28;20636;-77
2021/03/18 00:03:57;;;;;;;15.80;2.57;;;6.00;99.90;;;;;;5052442;28;20719;-78
2021/03/18 00:06:24;;;;;;;9.13;2.80;;;5.90;99.90;;;;;;5053041;28;20672;-77
2021/03/18 00:08:51;;;;;;;9.63;3.07;;;6.00;99.90;;;;;;5052432;28;20237;-79
2021/03/18 00:11:21;;;;;;;7.23;2.17;;;5.90;99.90;;;;;;5054151;28;20296;-79
2021/03/18 00:13:47;;;;;;;17.60;2.57;;;6.00;99.90;;;;;;5056642;28;20224;-79
2021/03/18 00:16:15;;;;;;;11.57;2.20;;;6.10;99.90;;;;;;5056437;28;20566;-78
2021/03/18 00:18:44;;;;;;;14.10;2.63;;;6.10;99.90;;;;;;5058088;28;20206;-78
2021/03/18 00:21:10;;;;;;;13.60;1.87;;;6.20;99.90;;;;;;5068100;28;20217;-78
2021/03/18 00:23:37;;;;;;;12.13;2.63;;;6.10;99.90;;;;;;5056409;28;20612;-79
2021/03/18 00:26:04;;;;;;;9.27;2.10;;;6.10;99.90;;;;;;5056277;28;20727;-77
2021/03/18 00:28:32;;;;;;;7.93;1.90;;;6.10;99.90;;;;;;5056231;28;20656;-80
2021/03/18 00:31:00;;;;;;;12.93;2.43;;;6.10;99.90;;;;;;5056241;28;20201;-79
2021/03/18 00:33:26;;;;;;;17.30;2.03;;;6.10;99.90;;;;;;5056110;28;20223;-78
2021/03/18 00:35:54;;;;;;;7.80;2.00;;;6.00;99.90;;;;;;5055931;28;20202;-79
2021/03/18 00:38:21;;;;;;;7.83;2.23;;;5.90;99.90;;;;;;5056372;28;20694;-78
2021/03/18 00:40:51;;;;;;;14.20;2.17;;;5.90;99.90;;;;;;5056118;28;20293;-77
2021/03/18 00:43:19;;;;;;;6.67;2.27;;;6.00;99.90;;;;;;5055315;28;20298;-77
2021/03/18 00:45:48;;;;;;;11.27;2.40;;;5.90;99.90;;;;;;5055711;28;20290;-77
2021/03/18 00:48:16;;;;;;;11.43;2.27;;;6.00;99.90;;;;;;5055700;28;20212;-79
2021/03/18 00:50:44;;;;;;;10.47;2.30;;;5.90;99.90;;;;;;5055679;28;20299;-79
2021/03/18 00:53:13;;;;;;;10.37;2.70;;;5.90;99.90;;;;;;5055585;28;20247;-77
2021/03/18 00:55:40;;;;;;;10.37;2.23;;;5.80;99.90;;;;;;5055443;28;20622;-78
2021/03/18 00:58:07;;;;;;;8.43;2.00;;;5.90;99.90;;;;;;5055455;28;20285;-77
2021/03/18 01:00:37;;;;;;;7.33;1.93;;;5.80;99.90;;;;;;5055452;28;20658;-78
2021/03/18 01:03:06;;;;;;;8.77;2.60;;;5.60;99.90;;;;;;5055687;28;20212;-78
2021/03/18 01:05:36;;;;;;;7.43;2.40;;;5.50;99.90;;;;;;5055283;28;20204;-77
2021/03/18 01:08:03;;;;;;;16.33;2.97;;;5.30;99.90;;;;;;5055450;28;20331;-77
2021/03/18 01:10:34;;;;;;;15.23;3.40;;;5.20;99.90;;;;;;5055366;28;20195;-80
2021/03/18 01:13:00;;;;;;;10.53;3.40;;;5.10;99.90;;;;;;5055617;28;20198;-80
2021/03/18 01:15:27;;;;;;;7.40;2.90;;;5.00;99.90;;;;;;5055559;28;20208;-80
2021/03/18 01:17:54;;;;;;;9.43;3.17;;;4.90;99.90;;;;;;5047123;28;20209;-79
2021/03/18 01:20:22;;;;;;;9.43;3.13;;;4.70;99.90;;;;;;5055380;28;20301;-78
2021/03/18 01:22:48;;;;;;;9.87;3.20;;;4.60;99.90;;;;;;5054283;28;20301;-79
2021/03/18 01:25:15;;;;;;;10.30;2.30;;;4.50;99.90;;;;;;5054908;28;20605;-79
2021/03/18 01:27:41;;;;;;;7.07;2.57;;;4.50;99.90;;;;;;5041068;28;20294;-80
2021/03/18 01:30:11;;;;;;;9.13;2.43;;;4.40;99.90;;;;;;5055006;28;20667;-80
2021/03/18 01:32:38;;;;;;;5.40;2.30;;;4.40;99.90;;;;;;5054794;28;20286;-79
2021/03/18 01:35:09;;;;;;;6.47;2.13;;;4.30;99.90;;;;;;5054920;28;20317;-79
2021/03/18 01:37:36;;;;;;;5.10;1.90;;;4.20;99.90;;;;;;5055114;28;20301;-78
2021/03/18 01:40:04;;;;;;;11.63;2.20;;;4.20;99.90;;;;;;5054630;28;20663;-77
2021/03/18 01:42:31;;;;;;;11.60;2.03;;;4.20;99.90;;;;;;5055184;28;20291;-78
2021/03/18 01:44:57;;;;;;;9.77;1.83;;;4.10;99.90;;;;;;5066573;28;20210;-80
2021/03/18 01:47:23;;;;;;;11.83;2.20;;;4.10;99.90;;;;;;5054519;28;20200;-78
2021/03/18 01:49:50;;;;;;;8.00;1.90;;;4.00;99.90;;;;;;5054784;28;20284;-79
2021/03/18 01:52:16;;;;;;;4.73;1.90;;;4.00;99.90;;;;;;5055199;28;20293;-79
2021/03/18 01:54:44;;;;;;;10.53;2.00;;;4.00;99.90;;;;;;5054352;28;20225;-78
2021/03/18 01:57:10;;;;;;;5.83;1.73;;;4.00;99.90;;;;;;5054937;28;20288;-79
2021/03/18 01:59:37;;;;;;;6.20;1.67;;;4.00;99.90;;;;;;5054585;28;20296;-80
2021/03/18 02:02:03;;;;;;;9.87;1.60;;;3.90;99.90;;;;;;5054793;28;20643;-82
2021/03/18 02:04:30;;;;;;;12.83;1.90;;;3.90;99.90;;;;;;5054458;28;20215;-78
2021/03/18 02:06:56;;;;;;;6.97;1.57;;;3.90;99.90;;;;;;5054814;28;20297;-80
2021/03/18 02:09:22;;;;;;;7.10;1.73;;;3.80;99.90;;;;;;5054513;28;20218;-78
2021/03/18 02:11:50;;;;;;;18.43;1.77;;;3.90;99.90;;;;;;5054785;28;20730;-80
2021/03/18 02:14:16;;;;;;;9.80;1.63;;;3.80;99.90;;;;;;5054810;28;20308;-80
2021/03/18 02:16:45;;;;;;;9.60;1.73;;;3.80;99.90;;;;;;5058073;28;20206;-78
2021/03/18 02:19:35;;;;;;;11.23;1.70;;;3.70;99.90;;;;;;5071754;28;20233;-79
2021/03/18 02:22:37;;;;;;;7.80;1.70;;;3.70;99.90;;;;;;5057375;28;20704;-78
2021/03/18 02:25:10;;;;;;;6.87;1.70;;;3.70;99.90;;;;;;5056523;28;20221;-79
2021/03/18 02:28:34;;;;;;;7.47;1.97;;;3.70;99.90;;;;;;5055677;28;20249;-78
2021/03/18 02:31:05;;;;;;;6.07;1.50;;;3.80;99.90;;;;;;5061036;28;20225;-80
2021/03/18 02:34:12;;;;;;;12.60;2.20;;;3.80;99.90;;;;;;5077659;28;20214;-81
2021/03/18 02:36:45;;;;;;;14.23;1.63;;;3.80;99.90;;;;;;5078651;28;20228;-79
2021/03/18 02:39:16;;;;;;;8.33;1.50;;;3.90;99.90;;;;;;5077984;28;20292;-79
2021/03/18 02:41:46;;;;;;;10.17;2.07;;;3.90;99.90;;;;;;5077837;28;20180;-79
2021/03/18 02:44:17;;;;;;;9.37;1.73;;;4.00;99.90;;;;;;5072377;28;20209;-78
2021/03/18 02:46:44;;;;;;;5.87;1.50;;;4.10;99.90;;;;;;5077673;28;20214;-80
2021/03/18 02:49:12;;;;;;;7.17;1.30;;;4.20;99.90;;;;;;5058608;28;20215;-80
2021/03/18 02:51:42;;;;;;;9.40;1.53;;;4.20;99.90;;;;;;5053637;28;20305;-78
2021/03/18 02:54:11;;;;;;;8.93;1.60;;;4.10;99.90;;;;;;5053993;28;20316;-80
2021/03/18 02:56:41;;;;;;;13.67;1.80;;;4.00;99.90;;;;;;5053569;28;20234;-80
2021/03/18 02:59:10;;;;;;;14.30;2.10;;;3.80;99.90;;;;;;5053777;28;20245;-78
2021/03/18 03:01:39;;;;;;;13.27;1.70;;;3.80;99.90;;;;;;5053493;28;20296;-79
2021/03/18 03:04:06;;;;;;;10.97;1.60;;;3.80;99.90;;;;;;5058578;28;20239;-80
2021/03/18 03:06:33;;;;;;;9.63;1.47;;;3.90;99.90;;;;;;5060909;28;20229;-79
2021/03/18 03:09:04;;;;;;;11.13;1.67;;;4.00;99.90;;;;;;5053679;28;20201;-81
2021/03/18 03:11:32;;;;;;;8.23;1.70;;;4.20;99.90;;;;;;5053251;28;20287;-79
2021/03/18 03:13:59;;;;;;;6.10;1.53;;;4.50;99.90;;;;;;5053542;28;20252;-80
2021/03/18 03:16:28;;;;;;;8.93;1.43;;;4.60;99.90;;;;;;5061447;28;20197;-79
2021/03/18 03:18:55;;;;;;;8.73;1.27;;;4.70;99.90;;;;;;5056896;28;20205;-80
2021/03/18 03:21:23;;;;;;;10.13;1.40;;;4.70;99.90;;;;;;5053115;28;20309;-79
2021/03/18 03:23:51;;;;;;;7.60;1.60;;;4.80;99.90;;;;;;5053042;28;20232;-79
2021/03/18 03:26:20;;;;;;;7.23;1.80;;;5.00;99.90;;;;;;5053150;28;20671;-77
2021/03/18 03:28:49;;;;;;;11.37;2.00;;;5.00;99.90;;;;;;5053428;28;20217;-80
2021/03/18 03:31:17;;;;;;;10.10;1.90;;;5.10;99.90;;;;;;5053040;28;20203;-79
2021/03/18 03:33:44;;;;;;;11.30;1.90;;;5.20;99.90;;;;;;5052840;28;20311;-79
2021/03/18 03:36:11;;;;;;;10.07;1.90;;;5.10;99.90;;;;;;5052689;28;20675;-79
2021/03/18 03:38:37;;;;;;;6.50;1.87;;;5.20;99.90;;;;;;5053026;28;20616;-81
2021/03/18 03:41:04;;;;;;;5.43;1.67;;;5.20;99.90;;;;;;5052935;28;20200;-77
2021/03/18 03:43:32;;;;;;;12.50;1.70;;;5.20;99.90;;;;;;5052966;28;20241;-79
2021/03/18 03:45:59;;;;;;;7.97;1.67;;;5.30;99.90;;;;;;5052323;28;20249;-80
2021/03/18 03:48:29;;;;;;;9.73;1.80;;;5.30;99.90;;;;;;5053168;28;20203;-79
2021/03/18 03:50:57;;;;;;;9.97;1.87;;;5.30;99.90;;;;;;5053028;28;20202;-80
2021/03/18 03:53:31;;;;;;;10.60;1.80;;;5.30;99.90;;;;;;5052872;28;20286;-79
2021/03/18 03:56:03;;;;;;;8.07;2.00;;;5.40;99.90;;;;;;5053435;28;20210;-78
2021/03/18 03:58:41;;;;;;;13.40;2.13;;;5.50;99.90;;;;;;5052821;28;20229;-80
2021/03/18 04:01:13;;;;;;;9.70;2.07;;;5.50;99.90;;;;;;5053447;28;20715;-79
2021/03/18 04:03:39;;;;;;;10.30;2.03;;;5.60;99.90;;;;;;5053278;28;20674;-79
2021/03/18 04:06:08;;;;;;;6.83;2.00;;;5.60;99.90;;;;;;5053193;28;20293;-80
2021/03/18 04:08:37;;;;;;;13.90;2.10;;;5.70;99.90;;;;;;5053001;28;20204;-80
2021/03/18 04:11:05;;;;;;;9.20;2.17;;;5.70;99.90;;;;;;5052538;28;20670;-79
2021/03/18 04:13:33;;;;;;;11.33;2.77;;;5.80;99.90;;;;;;5052679;28;20205;-78
2021/03/18 04:16:02;;;;;;;9.33;2.43;;;5.70;99.90;;;;;;5053160;28;20296;-79
2021/03/18 04:18:33;;;;;;;7.23;2.10;;;5.70;99.90;;;;;;5052584;28;20289;-78
2021/03/18 04:21:01;;;;;;;11.73;2.60;;;5.70;99.90;;;;;;5064324;28;20281;-78
2021/03/18 04:23:29;;;;;;;11.70;2.50;;;5.80;99.90;;;;;;5052520;28;20279;-78
2021/03/18 04:25:58;;;;;;;8.13;2.43;;;5.80;99.90;;;;;;5044795;28;20206;-78
2021/03/18 04:28:27;;;;;;;8.37;2.33;;;5.80;99.90;;;;;;5052733;28;20209;-79
2021/03/18 04:30:53;;;;;;;16.47;3.77;;;5.80;99.90;;;;;;5051283;28;20739;-78
2021/03/18 04:33:22;;;;;;;8.17;2.70;;;5.70;99.90;;;;;;5052622;28;20204;-81
2021/03/18 04:35:49;;;;;;;7.93;2.57;;;5.70;99.90;;;;;;5052502;28;20201;-80
2021/03/18 04:38:16;;;;;;;12.00;2.60;;;5.60;99.90;;;;;;5052422;28;20270;-77
2021/03/18 04:40:42;;;;;;;9.80;2.63;;;5.70;99.90;;;;;;5052551;28;20243;-78
2021/03/18 04:43:09;;;;;;;10.80;3.10;;;5.60;99.90;;;;;;5052261;28;20267;-77
2021/03/18 04:45:36;;;;;;;16.03;3.40;;;5.70;99.90;;;;;;5052240;28;20301;-79
2021/03/18 04:48:03;;;;;;;10.50;2.80;;;5.50;99.90;;;;;;5052185;28;20283;-80
2021/03/18 04:50:32;;;;;;;16.80;3.60;;;5.50;99.90;;;;;;5052091;28;20569;-77
2021/03/18 04:52:59;;;;;;;14.27;3.80;;;5.50;99.90;;;;;;5052369;28;20217;-79
2021/03/18 04:55:27;;;;;;;9.47;3.13;;;5.60;99.90;;;;;;5060193;28;20687;-79
2021/03/18 04:57:59;;;;;;;9.87;3.60;;;5.60;99.90;;;;;;5054425;28;20209;-78
2021/03/18 05:00:27;;;;;;;12.37;3.10;;;5.60;99.90;;;;;;5055606;28;20581;-79
2021/03/18 05:02:56;;;;;;;17.80;3.30;;;5.50;99.90;;;;;;5055825;28;20231;-78
2021/03/18 05:05:23;;;;;;;9.97;2.60;;;5.60;99.90;;;;;;5055790;28;20228;-79
2021/03/18 05:07:52;;;;;;;11.77;3.23;;;5.70;99.90;;;;;;5055358;28;20695;-79
2021/03/18 05:10:21;;;;;;;10.27;3.43;;;5.80;99.90;;;;;;5055499;28;20207;-81
2021/03/18 05:12:50;;;;;;;11.57;3.60;;;5.90;99.90;;;;;;5055860;28;20238;-81
2021/03/18 05:15:17;;;;;;;10.93;3.30;;;5.90;99.90;;;;;;5055167;28;20261;-81
2021/03/18 05:17:44;;;;;;;9.07;2.10;;;5.80;99.90;;;;;;5055746;28;20214;-81
2021/03/18 05:20:13;;;;;;;7.00;1.37;;;5.50;99.90;;;;;;5055280;28;20256;-80
2021/03/18 05:22:40;;;;;;;8.37;1.80;;;5.30;99.90;;;;;;5054308;28;20891;-80
2021/03/18 05:25:10;;;;;;;8.47;1.30;;;5.20;99.90;;;;;;5042649;28;20555;-80
2021/03/18 05:27:38;;;;;;;9.90;2.03;;;5.30;99.90;;;;;;5037598;28;20201;-77
2021/03/18 05:30:08;;;;;;;10.40;2.10;;;5.00;99.90;;;;;;5054817;28;20633;-79
2021/03/18 05:32:34;;;;;;;14.07;2.00;;;4.90;99.90;;;;;;5055089;28;20227;-79
2021/03/18 05:35:01;;;;;;;7.13;1.60;;;4.70;99.90;;;;;;5050881;28;20322;-80
2021/03/18 05:37:27;;;;;;;9.63;2.40;;;4.70;99.90;;;;;;5050059;28;20205;-80
2021/03/18 05:39:54;;;;;;;10.37;2.53;;;4.60;99.90;;;;;;5050789;28;20212;-80
2021/03/18 05:42:21;;;;;;;9.30;2.33;;;4.70;99.90;;;;;;5048045;28;20636;-79
2021/03/18 05:44:47;;;;;;;7.90;2.60;;;5.00;99.90;;;;;;5054045;28;20221;-79
2021/03/18 05:47:14;;;;;;;10.77;2.53;;;5.20;99.90;;;;;;5054364;28;20226;-79
2021/03/18 05:49:44;;;;;;;11.73;2.73;;;5.40;99.90;;;;;;5049770;28;20290;-78
2021/03/18 05:52:12;;;;;;;11.07;2.40;;;5.50;99.90;;;;;;5043532;28;20216;-79
2021/03/18 05:54:41;;;;;;;7.27;2.30;;;5.60;99.90;;;;;;5043909;28;20693;-78
2021/03/18 05:57:10;;;;;;;7.50;2.47;;;5.60;99.90;;;;;;5049744;28;20200;-80
2021/03/18 05:59:38;;;;;;;6.90;2.10;;;5.70;99.90;;;;;;5054814;28;20240;-79
2021/03/18 06:02:04;;;;;;;7.63;2.83;;;5.70;99.90;;;;;;5054763;28;20206;-79
2021/03/18 06:04:31;;;;;;;10.17;2.90;;;5.60;99.90;;;;;;5051409;28;20744;-80
2021/03/18 06:06:58;;;;;;;8.90;2.50;;;5.70;99.90;;;;;;5053309;28;20258;-79
2021/03/18 06:09:24;;;;;;;10.63;2.53;;;5.80;99.90;;;;;;5053626;28;20201;-79
2021/03/18 06:11:51;;;;;;;7.33;2.37;;;5.80;99.90;;;;;;5054379;28;20304;-78
2021/03/18 06:14:17;;;;;;;11.15;3.25;;;5.90;99.90;;;;;;5052965;28;20495;-79
2021/03/18 06:16:46;;;;;;;9.67;2.57;;;5.80;99.90;;;;;;5051590;28;20290;-79
2021/03/18 06:19:13;;;;;;;11.67;2.30;;;6.00;99.90;;;;;;5053515;28;20663;-77
2021/03/18 06:21:45;;;;;;;10.33;2.17;;;6.00;99.90;;;;;;5052616;28;20205;-81
2021/03/18 06:24:11;;;;;;;8.27;2.40;;;5.90;99.90;;;;;;5049158;28;20259;-76
2021/03/18 06:26:38;;;;;;;6.93;2.40;;;6.00;99.90;;;;;;5046783;28;20224;-77
2021/03/18 06:29:27;;;;;;;12.03;2.27;;;6.00;99.90;;;;;;5052690;28;20200;-80
2021/03/18 06:31:54;;;;;;;9.90;2.47;;;6.00;99.90;;;;;;5053110;28;20738;-79
2021/03/18 06:34:42;;;;;;;8.53;2.50;;;6.00;99.90;;;;;;5052807;28;20263;-79
2021/03/18 06:37:31;;;;;;;8.73;2.33;;;6.00;99.90;;;;;;5052694;28;20301;-77
2021/03/18 06:39:59;;;;;;;9.27;2.80;;;6.00;99.90;;;;;;5039245;28;20291;-78
2021/03/18 06:42:26;;;;;;;12.70;2.53;;;6.10;99.90;;;;;;5052106;28;20210;-79
2021/03/18 06:45:07;;;;;;;9.07;2.20;;;6.10;99.90;;;;;;5051007;28;20581;-78
2021/03/18 06:47:46;;;;;;;13.20;2.90;;;6.20;99.90;;;;;;5050933;28;20288;-80
2021/03/18 06:50:16;;;;;;;12.30;2.80;;;6.30;99.90;;;;;;5051368;28;20690;-80
2021/03/18 06:52:43;;;;;;;15.87;3.00;;;6.40;99.90;;;;;;5052613;28;20275;-81
2021/03/18 06:55:12;;;;;;;11.50;2.43;;;6.50;99.90;;;;;;5052623;28;20597;-79
2021/03/18 06:57:39;;;;;;;13.83;3.00;;;6.40;99.90;;;;;;5050594;28;20221;-80
2021/03/18 07:00:08;;;;;;;17.40;2.90;;;6.50;99.90;;;;;;5053696;28;20232;-80
2021/03/18 07:02:40;;;;;;;9.50;2.60;;;6.60;99.90;;;;;;5049568;28;20297;-76
2021/03/18 07:05:18;;;;;;;9.93;2.63;;;6.70;99.90;;;;;;5052881;28;20455;-80
2021/03/18 07:07:47;;;;;;;8.27;2.37;;;6.70;99.90;;;;;;5049474;28;20206;-81
2021/03/18 07:10:15;;;;;;;8.77;2.50;;;6.70;99.90;;;;;;5052848;28;20210;-75
2021/03/18 07:12:42;;;;;;;14.10;2.87;;;6.70;99.90;;;;;;5052257;28;20603;-79
2021/03/18 07:15:18;;;;;;;11.40;2.60;;;6.90;99.90;;;;;;5052252;28;20674;-80
2021/03/18 07:17:45;;;;;;;7.70;2.70;;;7.00;99.90;;;;;;5051535;28;20224;-79
2021/03/18 07:20:14;;;;;;;15.60;3.30;;;7.00;99.90;;;;;;5051724;28;20208;-79
2021/03/18 07:22:44;;;;;;;8.93;2.60;;;6.90;99.90;;;;;;5052334;28;20292;-80
2021/03/18 07:25:12;;;;;;;11.43;3.50;;;7.00;99.90;;;;;;5052047;28;20202;-79
2021/03/18 07:27:43;;;;;;;10.63;3.23;;;7.00;99.90;;;;;;5050839;28;20291;-81
2021/03/18 07:30:24;;;;;;;11.37;2.87;;;7.10;99.90;;;;;;5050279;28;20289;-78
2021/03/18 07:32:51;;;;;;;12.10;2.60;;;7.20;99.90;;;;;;5030756;28;20280;-81
2021/03/18 07:35:18;;;;;;;7.10;2.70;;;7.50;99.90;;;;;;5030669;28;20764;-81
2021/03/18 07:37:45;;;;;;;11.63;2.90;;;7.60;99.90;;;;;;5029995;28;20295;-80
2021/03/18 07:40:12;;;;;;;14.73;3.47;;;7.70;99.90;;;;;;5041069;28;20346;-78
2021/03/18 07:42:39;;;;;;;10.90;2.10;;;7.90;99.90;;;;;;5052588;28;20202;-80
2021/03/18 07:45:07;;;;;;;9.47;2.30;;;7.90;99.90;;;;;;5051897;28;20244;-81
2021/03/18 07:47:34;;;;;;;9.13;2.33;;;8.10;99.90;;;;;;5053015;28;20210;-80
2021/03/18 07:50:04;;;;;;;8.47;1.77;;;8.10;99.90;;;;;;5052856;28;20290;-80
2021/03/18 07:52:31;;;;;;;10.93;2.63;;;8.20;99.90;;;;;;5052629;28;20202;-79
2021/03/18 07:55:00;;;;;;;9.57;1.70;;;8.40;99.90;;;;;;5052565;28;20227;-79
2021/03/18 07:57:26;;;;;;;9.37;1.80;;;8.60;99.90;;;;;;5052053;28;20203;-78
2021/03/18 08:00:08;;;;;;;5.97;1.63;;;8.80;99.90;;;;;;5052779;28;20292;-80
2021/03/18 08:02:35;;;;;;;9.03;2.27;;;9.00;99.90;;;;;;5051989;28;20210;-80
2021/03/18 08:05:01;;;;;;;9.93;2.20;;;9.20;99.90;;;;;;5052450;28;20211;-79
2021/03/18 08:07:44;;;;;;;11.73;2.53;;;9.40;99.90;;;;;;5052612;28;20200;-78
2021/03/18 08:10:14;;;;;;;9.93;2.53;;;9.60;99.90;;;;;;5052361;28;20603;-79
2021/03/18 08:12:48;;;;;;;9.43;2.60;;;9.70;99.90;;;;;;5052786;28;20194;-79
2021/03/18 08:15:32;;;;;;;8.93;2.20;;;9.70;99.90;;;;;;5052513;28;20208;-80
2021/03/18 08:18:45;;;;;;;10.27;2.40;;;9.70;99.90;;;;;;5052057;28;20657;-82
2021/03/18 08:21:12;;;;;;;5.83;1.90;;;9.80;99.90;;;;;;5046093;28;20642;-80
2021/03/18 08:23:44;;;;;;;10.30;2.20;;;9.80;99.90;;;;;;5051387;28;20298;-79
2021/03/18 08:26:19;;;;;;;16.00;2.70;;;9.70;99.90;;;;;;5048566;28;20224;-79
2021/03/18 08:28:47;;;;;;;13.50;2.70;;;9.60;99.90;;;;;;5052315;28;20286;-79
2021/03/18 08:31:15;;;;;;;10.80;2.60;;;9.50;99.90;;;;;;5052128;28;20207;-79
2021/03/18 08:33:46;;;;;;;14.57;3.10;;;9.70;99.90;;;;;;5052485;28;20210;-79
2021/03/18 08:36:24;;;;;;;10.83;2.93;;;9.90;99.90;;;;;;5055643;28;20301;-80
2021/03/18 08:38:52;;;;;;;10.07;3.37;;;10.20;99.90;;;;;;5055803;28;20206;-78
2021/03/18 08:41:31;;;;;;;10.93;2.97;;;10.50;99.90;;;;;;5055693;28;20237;-76
2021/03/18 08:44:13;;;;;;;11.47;3.40;;;10.80;99.90;;;;;;5055921;28;20210;-77
2021/03/18 08:46:43;;;;;;;10.03;3.70;;;11.10;99.90;;;;;;5056159;28;20230;-78
2021/03/18 08:49:21;;;;;;;13.10;3.80;;;11.20;99.90;;;;;;5056083;28;20289;-77
2021/03/18 08:51:47;;;;;;;11.60;3.97;;;11.40;99.90;;;;;;5056388;28;20235;-77
2021/03/18 08:54:49;;;;;;;12.30;3.67;;;11.40;99.90;;;;;;5056339;28;20230;-78
2021/03/18 08:57:28;;;;;;;12.33;3.53;;;11.50;99.90;;;;;;5052295;28;20659;-77
2021/03/18 08:59:57;;;;;;;9.33;3.50;;;11.40;99.90;;;;;;5054783;28;20198;-79
2021/03/18 09:02:30;;;;;;;15.27;4.37;;;11.50;99.90;;;;;;5055901;28;20214;-78
2021/03/18 09:04:57;;;;;;;12.30;3.90;;;11.60;99.90;;;;;;5061412;28;20657;-78
2021/03/18 09:07:26;;;;;;;11.67;3.77;;;11.70;99.90;;;;;;5073876;28;20235;-78
2021/03/18 09:10:06;;;;;;;9.90;3.57;;;11.70;99.90;;;;;;5073155;28;20258;-78
2021/03/18 09:12:41;;;;;;;9.57;3.30;;;11.60;99.90;;;;;;5069523;28;20222;-78
2021/03/18 09:15:17;;;;;;;15.40;3.27;;;11.60;99.90;;;;;;5068044;28;20216;-76
2021/03/18 09:17:45;;;;;;;14.57;3.57;;;11.30;99.90;;;;;;5075694;28;20198;-77
2021/03/18 09:20:13;;;;;;;13.70;3.80;;;11.50;99.90;;;;;;5074491;28;20198;-77
2021/03/18 09:22:40;;;;;;;11.80;4.20;;;11.30;99.90;;;;;;5063533;28;20619;-78
2021/03/18 09:25:08;;;;;;;9.57;4.23;;;11.30;99.90;;;;;;5056001;28;20287;-79
2021/03/18 09:27:36;;;;;;;13.30;4.10;;;11.20;99.90;;;;;;5055330;28;20201;-79
2021/03/18 09:30:38;;;;;;;11.27;4.80;;;11.20;99.90;;;;;;5054115;28;20576;-76
2021/03/18 09:33:20;;;;;;;14.10;4.57;;;11.20;99.90;;;;;;5045366;28;20240;-78
2021/03/18 09:35:47;;;;;;;12.10;4.77;;;11.00;99.90;;;;;;5054919;28;20698;-77
2021/03/18 09:38:22;;;;;;;18.90;4.97;;;11.00;99.90;;;;;;5054602;28;20226;-78
2021/03/18 09:40:50;;;;;;;15.13;5.00;;;10.70;99.90;;;;;;5054766;28;20195;-78
2021/03/18 09:43:18;;;;;;;11.83;4.40;;;10.40;99.90;;;;;;5054390;28;20234;-81
2021/03/18 09:45:50;;;;;;;12.07;4.60;;;10.30;99.90;;;;;;5054672;28;20305;-78
2021/03/18 09:48:30;;;;;;;14.23;5.10;;;10.40;99.90;;;;;;5061047;28;20570;-77
2021/03/18 09:51:06;;;;;;;14.53;4.80;;;10.40;99.90;;;;;;5074852;28;20277;-77
2021/03/18 09:53:32;;;;;;;17.60;5.37;;;10.70;99.90;;;;;;5073614;28;20276;-79
2021/03/18 09:56:06;;;;;;;14.87;4.97;;;10.90;99.90;;;;;;5044572;28;20372;-78
2021/03/18 09:58:33;;;;;;;16.10;5.47;;;11.00;99.90;;;;;;5049124;28;20643;-79
2021/03/18 10:01:11;;;;;;;12.83;5.13;;;11.00;99.90;;;;;;5040826;28;20228;-80
2021/03/18 10:03:50;;;;;;;24.47;5.60;;;11.00;99.90;;;;;;5054463;28;20194;-81
2021/03/18 10:06:25;;;;;;;15.93;5.23;;;10.70;99.90;;;;;;5054829;28;20642;-79
2021/03/18 10:08:51;;;;;;;22.73;6.53;;;10.10;99.90;;;;;;5054579;28;20188;-79
2021/03/18 10:11:18;;;;;;;19.30;5.83;;;9.90;99.90;;;;;;5055842;28;20198;-79
2021/03/18 10:13:44;;;;;;;16.43;5.90;;;10.10;99.90;;;;;;5059655;28;20196;-80
2021/03/18 10:16:12;;;;;;;25.10;5.83;;;10.10;99.90;;;;;;5058255;28;20240;-79
2021/03/18 10:18:38;;;;;;;19.07;5.90;;;10.30;99.90;;;;;;5054196;28;20658;-80
2021/03/18 10:21:06;;;;;;;17.27;5.90;;;10.30;99.90;;;;;;5054077;28;20294;-79
2021/03/18 10:23:34;;;;;;;20.50;5.50;;;10.20;99.90;;;;;;5054138;28;20235;-80
2021/03/18 10:26:01;;;;;;;22.00;5.33;;;10.20;99.90;;;;;;5045836;28;20217;-81
2021/03/18 10:28:30;;;;;;;20.33;6.00;;;10.10;99.90;;;;;;5054038;28;20292;-80
2021/03/18 10:30:57;;;;;;;20.13;6.10;;;10.20;99.90;;;;;;5053964;28;20238;-80
2021/03/18 10:33:25;;;;;;;19.33;5.97;;;10.50;99.90;;;;;;5053468;28;20202;-80
2021/03/18 10:36:00;;;;;;;25.10;5.97;;;10.70;99.90;;;;;;5053849;28;20308;-80
2021/03/18 10:38:31;;;;;;;20.60;6.17;;;10.70;99.90;;;;;;5048518;28;20274;-79
2021/03/18 10:40:59;;;;;;;15.93;6.03;;;10.70;99.90;;;;;;5045613;28;20290;-80
2021/03/18 10:43:28;;;;;;;15.77;6.57;;;10.70;99.90;;;;;;5035341;28;20200;-78
2021/03/18 10:45:56;;;;;;;14.93;6.30;;;10.70;99.90;;;;;;5038200;28;20212;-79
2021/03/18 10:48:26;;;;;;;20.03;6.87;;;10.60;99.90;;;;;;5052979;28;20204;-80
2021/03/18 10:50:54;;;;;;;19.90;6.80;;;10.60;99.90;;;;;;5049464;28;20286;-77
2021/03/18 10:53:22;;;;;;;23.20;8.57;;;10.40;99.90;;;;;;5040945;28;20307;-79
2021/03/18 10:55:54;;;;;;;18.43;8.03;;;10.30;99.90;;;;;;5035188;28;20312;-79
2021/03/18 10:58:21;;;;;;;21.63;8.03;;;10.20;99.90;;;;;;5053606;28;20665;-79
2021/03/18 11:00:56;;;;;;;26.20;8.17;;;10.10;99.90;;;;;;5053102;28;20337;-80
2021/03/18 11:03:29;;;;;;;21.30;8.10;;;9.90;99.90;;;;;;5047355;28;20601;-79
2021/03/18 11:05:55;;;;;;;26.73;9.30;;;10.00;99.90;;;;;;5053324;28;20202;-81
2021/03/18 11:08:28;;;;;;;22.50;9.03;;;10.10;99.90;;;;;;5053382;28;20226;-80
2021/03/18 11:10:56;;;;;;;25.30;10.27;;;10.20;99.90;;;;;;5053519;28;20193;-79
2021/03/18 11:13:24;;;;;;;25.97;9.00;;;10.30;99.90;;;;;;5053197;28;20289;-79
2021/03/18 11:15:57;;;;;;;26.20;8.53;;;10.30;99.90;;;;;;5053083;28;20230;-79
2021/03/18 11:18:31;;;;;;;19.77;8.10;;;10.10;99.90;;;;;;5052698;28;20202;-81
2021/03/18 11:20:58;;;;;;;29.47;8.67;;;10.30;99.90;;;;;;5052701;28;20576;-80
2021/03/18 11:23:34;;;;;;;25.10;8.33;;;10.40;99.90;;;;;;5053617;28;20221;-81
2021/03/18 11:26:03;;;;;;;23.93;8.37;;;10.40;99.90;;;;;;5052653;28;20248;-82
2021/03/18 11:28:30;;;;;;;26.80;8.33;;;10.20;99.90;;;;;;5052463;28;20665;-78
2021/03/18 11:30:58;;;;;;;30.07;9.60;;;10.30;99.90;;;;;;5052597;28;20199;-80
2021/03/18 11:33:32;;;;;;;26.80;8.80;;;10.40;99.90;;;;;;5052133;28;20760;-78
2021/03/18 11:36:02;;;;;;;27.37;9.00;;;10.40;99.90;;;;;;5052573;28;20216;-78
2021/03/18 11:38:29;;;;;;;29.17;8.87;;;10.70;99.90;;;;;;5053105;28;20297;-78
2021/03/18 11:40:56;;;;;;;23.40;8.63;;;11.00;99.90;;;;;;5052942;28;20254;-78
2021/03/18 11:43:23;;;;;;;32.40;10.27;;;10.90;99.90;;;;;;5052410;28;20668;-79
2021/03/18 11:45:49;;;;;;;34.37;9.43;;;11.00;99.90;;;;;;5052695;28;20217;-79
2021/03/18 11:48:16;;;;;;;34.60;8.97;;;11.10;99.90;;;;;;5049531;28;20721;-79
2021/03/18 11:50:42;;;;;;;28.20;7.90;;;11.30;99.90;;;;;;5047435;28;20210;-78
2021/03/18 11:53:10;;;;;;;28.00;7.00;;;11.20;99.90;;;;;;5052979;28;20213;-78
2021/03/18 11:55:37;;;;;;;29.93;5.93;;;11.20;99.90;;;;;;5051860;28;20316;-78
2021/03/18 11:58:04;;;;;;;23.67;6.20;;;11.40;99.90;;;;;;5052311;28;20199;-78
2021/03/18 12:00:33;;;;;;;20.20;5.53;;;11.70;99.90;;;;;;5052345;28;20734;-79
2021/03/18 12:03:01;;;;;;;22.37;4.07;;;11.80;99.90;;;;;;5052084;28;20664;-79
2021/03/18 12:05:29;;;;;;;14.80;4.87;;;11.40;99.90;;;;;;5052820;28;20203;-78
2021/03/18 12:07:56;;;;;;;18.90;4.47;;;11.10;99.90;;;;;;5043813;28;20273;-80
2021/03/18 12:10:24;;;;;;;23.60;5.23;;;10.80;99.90;;;;;;5053996;28;20320;-79
2021/03/18 12:12:51;;;;;;;17.67;5.20;;;10.50;99.90;;;;;;5055866;28;20741;-80
2021/03/18 12:15:18;;;;;;;15.53;4.80;;;10.40;99.90;;;;;;5048440;28;20226;-82
2021/03/18 12:17:45;;;;;;;25.97;6.70;;;10.20;99.90;;;;;;5044363;28;20604;-78
2021/03/18 12:20:16;;;;;;;23.50;5.43;;;10.00;99.90;;;;;;5050059;28;20213;-80
2021/03/18 12:22:42;;;;;;;26.10;5.80;;;10.20;99.90;;;;;;5055899;28;20207;-81
2021/03/18 12:25:10;;;;;;;28.03;7.00;;;10.40;99.90;;;;;;5056350;28;20209;-81
2021/03/18 12:27:38;;;;;;;20.83;6.23;;;10.50;99.90;;;;;;5056081;28;20227;-78
2021/03/18 12:30:07;;;;;;;22.97;6.37;;;10.60;99.90;;;;;;5055831;28;20255;-78
2021/03/18 12:32:33;;;;;;;19.30;6.80;;;10.60;99.90;;;;;;5055460;28;20210;-78
2021/03/18 12:35:00;;;;;;;19.93;6.40;;;10.70;99.90;;;;;;5055286;28;20321;-79
2021/03/18 12:37:26;;;;;;;22.67;5.77;;;10.40;99.90;;;;;;5047783;28;20195;-79
2021/03/18 12:39:53;;;;;;;19.47;6.93;;;10.40;99.90;;;;;;5049365;28;20631;-79
2021/03/18 12:42:19;;;;;;;24.77;7.23;;;10.60;99.90;;;;;;5054659;28;20919;-78
2021/03/18 12:44:47;;;;;;;17.97;6.70;;;10.70;99.90;;;;;;5054488;28;20325;-80
2021/03/18 12:47:13;;;;;;;18.63;6.20;;;10.60;99.90;;;;;;5056299;28;20231;-79
2021/03/18 12:49:40;;;;;;;19.93;7.40;;;10.70;99.90;;;;;;5056029;28;20249;-79
2021/03/18 12:52:07;;;;;;;21.57;6.63;;;10.80;99.90;;;;;;5056022;28;20198;-81
2021/03/18 12:54:33;;;;;;;15.80;6.77;;;11.00;99.90;;;;;;5055068;28;20227;-79
2021/03/18 12:57:00;;;;;;;19.43;7.57;;;11.10;99.90;;;;;;5055014;28;20289;-78
2021/03/18 12:59:27;;;;;;;17.77;7.07;;;11.00;99.90;;;;;;5055561;28;20230;-78
2021/03/18 13:01:54;;;;;;;19.90;7.27;;;10.90;99.90;;;;;;5055618;28;20202;-78